Time;durP1;ratioP1;P1;durP2;ratioP2;P2;SDS_P1;SDS_P2;PMS_P1;PMS_P2;Temp;Humidity;BMP_temperature;BMP_pressure;BME280_temperature;BME280_humidity;BME280_pressure;Samples;Min_cycle;Max_cycle;Signal;HPM_P1;HPM_P2
2021/12/16 00:09:24;;;;;;;7.97;5.80;;;;;;;;;;7392060;19;20002;-71
2021/12/16 00:29:00;;;;;;;7.72;4.93;;;;;;;;;;7392546;19;20021;-70
2021/12/16 00:35:56;;;;;;;10.73;6.70;;;;;;;;;;7392470;19;19998;-70
2021/12/16 00:38:22;;;;;;;9.35;6.25;;;;;;;;;;7391006;19;20351;-70
2021/12/16 00:40:48;;;;;;;12.35;6.90;;;;;;;;;;7392472;19;20002;-70
2021/12/16 00:56:05;;;;;;;8.32;5.47;;;;;;;;;;7392098;19;20015;-70
2021/12/16 00:58:45;;;;;;;8.57;5.85;;;;;;;;;;7390752;19;19999;-70
2021/12/16 01:01:31;;;;;;;9.48;6.45;;;;;;;;;;7391016;19;20002;-71
2021/12/16 01:34:53;;;;;;;13.45;7.57;;;;;;;;;;7386435;19;20109;-70
2021/12/16 01:40:07;;;;;;;11.13;7.50;;;;;;;;;;7387506;19;19998;-70
2021/12/16 01:48:02;;;;;;;10.88;7.07;;;;;;;;;;7388666;19;20444;-73
2021/12/16 01:50:33;;;;;;;;;;;;;;;;;;7390048;19;20002;-70
2021/12/16 01:55:59;;;;;;;7.07;5.10;;;;;;;;;;7394942;19;20006;-70
2021/12/16 01:58:28;;;;;;;6.88;4.47;;;;;;;;;;7392418;19;20015;-71
2021/12/16 02:03:40;;;;;;;6.80;5.13;;;;;;;;;;7389147;19;20002;-70
2021/12/16 02:09:04;;;;;;;8.47;5.40;;;;;;;;;;7386176;19;20023;-70
2021/12/16 02:35:43;;;;;;;7.43;4.68;;;;;;;;;;7388971;19;20460;-70
2021/12/16 02:38:02;;;;;;;5.95;4.00;;;;;;;;;;7387661;19;20133;-70
2021/12/16 02:40:28;;;;;;;6.82;4.80;;;;;;;;;;7387501;19;20002;-71
2021/12/16 02:43:23;;;;;;;6.53;4.75;;;;;;;;;;7386694;19;20019;-70
2021/12/16 02:48:32;;;;;;;6.20;3.97;;;;;;;;;;7387334;19;19991;-70
2021/12/16 02:51:20;;;;;;;5.00;3.67;;;;;;;;;;7387727;19;20030;-70
2021/12/16 02:53:53;;;;;;;4.60;3.65;;;;;;;;;;7387106;19;20017;-70
2021/12/16 02:56:18;;;;;;;5.95;4.20;;;;;;;;;;7387838;19;20002;-71
2021/12/16 02:58:51;;;;;;;5.55;3.72;;;;;;;;;;7386679;19;20002;-70
2021/12/16 03:01:29;;;;;;;5.82;4.32;;;;;;;;;;7387892;19;20023;-70
2021/12/16 03:03:56;;;;;;;7.40;4.63;;;;;;;;;;7387829;19;20081;-71
2021/12/16 03:06:22;;;;;;;6.45;4.60;;;;;;;;;;7387362;19;20319;-70
2021/12/16 03:08:48;;;;;;;5.13;3.85;;;;;;;;;;7385822;19;20006;-71
2021/12/16 03:11:26;;;;;;;7.40;4.75;;;;;;;;;;7387412;19;20003;-70
2021/12/16 03:16:26;;;;;;;8.10;4.22;;;;;;;;;;7387733;19;20003;-70
2021/12/16 03:19:13;;;;;;;5.50;3.80;;;;;;;;;;7386516;19;20005;-70
2021/12/16 03:21:43;;;;;;;6.22;4.28;;;;;;;;;;7386614;19;19998;-72
2021/12/16 03:37:51;;;;;;;6.85;4.20;;;;;;;;;;7394455;19;20456;-70
2021/12/16 03:40:17;;;;;;;5.47;3.78;;;;;;;;;;7392634;19;20055;-70
2021/12/16 03:42:51;;;;;;;4.80;3.80;;;;;;;;;;7392327;19;20024;-70
2021/12/16 03:48:48;;;;;;;4.93;3.42;;;;;;;;;;7391436;19;20494;-70
2021/12/16 03:51:16;;;;;;;4.22;2.92;;;;;;;;;;7393471;19;19998;-70
2021/12/16 03:53:43;;;;;;;5.28;3.17;;;;;;;;;;7393042;19;20026;-70
2021/12/16 03:56:10;;;;;;;5.82;3.60;;;;;;;;;;7392413;19;20002;-70
2021/12/16 03:58:35;;;;;;;5.32;4.07;;;;;;;;;;7392560;19;20480;-70
2021/12/16 04:01:07;;;;;;;6.53;4.60;;;;;;;;;;7393898;19;20119;-70
2021/12/16 04:03:32;;;;;;;6.15;4.25;;;;;;;;;;7393996;19;20006;-70
2021/12/16 04:05:58;;;;;;;7.13;5.25;;;;;;;;;;7393189;19;19999;-70
2021/12/16 04:08:24;;;;;;;6.85;4.85;;;;;;;;;;7392248;19;20054;-70
2021/12/16 04:11:01;;;;;;;9.43;6.65;;;;;;;;;;7393244;19;19991;-70
2021/12/16 04:13:27;;;;;;;9.75;6.50;;;;;;;;;;7393711;19;19999;-71
2021/12/16 04:15:53;;;;;;;8.85;6.15;;;;;;;;;;7393185;19;20001;-70
2021/12/16 04:18:19;;;;;;;11.32;6.47;;;;;;;;;;7390398;19;20037;-70
2021/12/16 04:20:45;;;;;;;9.55;6.50;;;;;;;;;;7390546;19;20007;-70
2021/12/16 04:23:12;;;;;;;10.77;6.60;;;;;;;;;;7388395;19;20421;-70
2021/12/16 04:25:42;;;;;;;10.68;6.35;;;;;;;;;;7394183;19;20018;-70
2021/12/16 04:28:16;;;;;;;8.63;5.88;;;;;;;;;;7387414;19;19995;-70
2021/12/16 04:30:42;;;;;;;9.13;6.05;;;;;;;;;;7390377;19;20006;-70
2021/12/16 04:33:08;;;;;;;10.98;6.63;;;;;;;;;;7387527;19;20002;-69
2021/12/16 04:35:35;;;;;;;8.95;5.82;;;;;;;;;;7389103;19;20377;-71
2021/12/16 04:38:00;;;;;;;10.88;6.85;;;;;;;;;;7389378;19;20054;-70
2021/12/16 04:40:28;;;;;;;11.13;6.72;;;;;;;;;;7389007;19;20012;-70
2021/12/16 04:42:59;;;;;;;10.13;6.75;;;;;;;;;;7387470;19;19999;-71
2021/12/16 04:45:25;;;;;;;11.32;6.53;;;;;;;;;;7390097;19;20516;-70
2021/12/16 04:47:51;;;;;;;11.05;6.53;;;;;;;;;;7387599;19;20027;-71
2021/12/16 04:50:18;;;;;;;10.68;6.32;;;;;;;;;;7389207;19;20058;-70
2021/12/16 04:52:43;;;;;;;10.75;6.55;;;;;;;;;;7387369;19;20013;-71
2021/12/16 04:55:11;;;;;;;10.98;6.53;;;;;;;;;;7388458;19;19998;-70
2021/12/16 04:57:37;;;;;;;11.32;7.13;;;;;;;;;;7389096;19;20330;-70
2021/12/16 05:00:09;;;;;;;10.68;6.93;;;;;;;;;;7387000;19;20010;-71
2021/12/16 05:02:34;;;;;;;15.07;7.35;;;;;;;;;;7386898;19;19999;-70
2021/12/16 05:05:00;;;;;;;11.27;7.30;;;;;;;;;;7389135;19;20330;-70
2021/12/16 05:07:25;;;;;;;11.18;6.75;;;;;;;;;;7387631;19;20009;-70
2021/12/16 05:10:04;;;;;;;9.98;6.38;;;;;;;;;;7387520;19;20459;-70
2021/12/16 05:12:33;;;;;;;8.50;6.25;;;;;;;;;;7387569;19;20004;-70
2021/12/16 05:14:59;;;;;;;8.23;6.00;;;;;;;;;;7391762;19;20331;-70
2021/12/16 05:17:36;;;;;;;10.70;6.53;;;;;;;;;;7250057;19;2751542;-71
2021/12/16 05:20:08;;;;;;;8.00;5.32;;;;;;;;;;7389883;19;20058;-70
2021/12/16 05:25:27;;;;;;;9.95;5.95;;;;;;;;;;7390687;19;20028;-71
2021/12/16 05:27:52;;;;;;;10.60;6.03;;;;;;;;;;7388729;19;19998;-71
2021/12/16 05:30:18;;;;;;;10.88;7.28;;;;;;;;;;7390035;19;20001;-70
2021/12/16 05:32:45;;;;;;;10.63;6.18;;;;;;;;;;7389115;19;20715;-70
2021/12/16 05:35:17;;;;;;;13.23;7.90;;;;;;;;;;7392938;19;19994;-70
2021/12/16 05:37:45;;;;;;;9.88;6.38;;;;;;;;;;7390506;19;20338;-71
2021/12/16 05:40:12;;;;;;;10.40;6.72;;;;;;;;;;7388733;19;20084;-69
2021/12/16 05:42:38;;;;;;;13.68;7.65;;;;;;;;;;7388546;19;20009;-70
2021/12/16 05:45:05;;;;;;;12.02;7.53;;;;;;;;;;7390178;19;20003;-70
2021/12/16 05:47:30;;;;;;;11.05;6.80;;;;;;;;;;7386941;19;20002;-70
2021/12/16 05:49:56;;;;;;;9.77;6.13;;;;;;;;;;7389309;19;20378;-69
2021/12/16 05:52:21;;;;;;;11.98;6.85;;;;;;;;;;7388603;19;19995;-70
2021/12/16 05:54:47;;;;;;;10.45;6.80;;;;;;;;;;7388951;19;19999;-71
2021/12/16 05:57:13;;;;;;;10.10;6.03;;;;;;;;;;7389655;19;20010;-72
2021/12/16 05:59:38;;;;;;;8.52;5.45;;;;;;;;;;7389258;19;20058;-70
2021/12/16 06:02:04;;;;;;;10.80;6.47;;;;;;;;;;7388722;19;20058;-71
2021/12/16 06:04:30;;;;;;;9.90;5.97;;;;;;;;;;7393621;19;20010;-70
2021/12/16 06:06:55;;;;;;;12.13;7.28;;;;;;;;;;7389001;19;19999;-71
2021/12/16 06:09:20;;;;;;;11.05;6.63;;;;;;;;;;7387864;19;20014;-69
2021/12/16 06:11:48;;;;;;;11.73;7.10;;;;;;;;;;7387785;19;19994;-70
2021/12/16 06:14:25;;;;;;;11.70;6.38;;;;;;;;;;7389312;19;20007;-70
2021/12/16 06:22:54;;;;;;;13.07;7.35;;;;;;;;;;7388159;19;20038;-69
2021/12/16 06:28:07;;;;;;;14.15;7.10;;;;;;;;;;7386785;19;20337;-70
2021/12/16 06:30:39;;;;;;;12.20;7.95;;;;;;;;;;7388522;19;20452;-70
2021/12/16 06:33:07;;;;;;;12.88;7.32;;;;;;;;;;7386958;19;20010;-69
2021/12/16 06:35:33;;;;;;;12.60;6.90;;;;;;;;;;7389029;19;19994;-70
2021/12/16 06:37:59;;;;;;;11.98;6.80;;;;;;;;;;7388236;19;20472;-70
2021/12/16 06:40:25;;;;;;;11.20;6.88;;;;;;;;;;7387308;19;20006;-70
2021/12/16 06:42:53;;;;;;;11.18;7.20;;;;;;;;;;7386764;19;20007;-69
2021/12/16 06:45:24;;;;;;;11.68;7.10;;;;;;;;;;7388471;19;20006;-69
2021/12/16 06:48:04;;;;;;;12.68;7.10;;;;;;;;;;7387295;19;20007;-70
2021/12/16 06:53:01;;;;;;;10.50;6.65;;;;;;;;;;7388344;19;20368;-70
2021/12/16 06:55:49;;;;;;;11.75;6.90;;;;;;;;;;7392066;19;20026;-70
2021/12/16 06:58:29;;;;;;;9.95;6.30;;;;;;;;;;7387219;19;20069;-71
2021/12/16 07:01:07;;;;;;;11.95;6.47;;;;;;;;;;7387767;19;20005;-70
2021/12/16 07:03:47;;;;;;;10.90;6.15;;;;;;;;;;7387189;19;20009;-70
2021/12/16 07:06:22;;;;;;;10.63;5.78;;;;;;;;;;7387821;19;20028;-70
2021/12/16 07:08:49;;;;;;;7.32;5.03;;;;;;;;;;7385829;19;20110;-71
2021/12/16 07:11:15;;;;;;;8.90;4.97;;;;;;;;;;7387143;19;19999;-70
2021/12/16 07:13:42;;;;;;;8.65;5.03;;;;;;;;;;7387627;19;20022;-70
2021/12/16 07:16:10;;;;;;;8.57;5.43;;;;;;;;;;7387622;19;20020;-71
2021/12/16 07:18:36;;;;;;;7.65;5.45;;;;;;;;;;7386146;19;20072;-70
2021/12/16 07:21:02;;;;;;;9.73;6.15;;;;;;;;;;7387352;19;19995;-70
2021/12/16 07:23:28;;;;;;;12.57;7.40;;;;;;;;;;7386114;19;20103;-70
2021/12/16 07:25:54;;;;;;;9.00;6.00;;;;;;;;;;7387650;19;20002;-70
2021/12/16 07:28:19;;;;;;;11.15;6.28;;;;;;;;;;7384294;19;20006;-71
2021/12/16 07:30:46;;;;;;;8.52;4.85;;;;;;;;;;7387228;19;19999;-70
2021/12/16 07:33:16;;;;;;;9.40;6.15;;;;;;;;;;7384988;19;20003;-71
2021/12/16 07:35:43;;;;;;;9.10;5.63;;;;;;;;;;7387738;19;20001;-70
2021/12/16 07:38:09;;;;;;;11.65;5.78;;;;;;;;;;7385179;19;20006;-70
2021/12/16 07:40:36;;;;;;;9.60;5.78;;;;;;;;;;7386920;19;20244;-70
2021/12/16 07:45:34;;;;;;;10.02;5.35;;;;;;;;;;7391384;19;20457;-70
2021/12/16 07:48:00;;;;;;;7.15;5.05;;;;;;;;;;7384788;19;19998;-71
2021/12/16 07:50:25;;;;;;;10.52;5.78;;;;;;;;;;7385765;19;19999;-72
2021/12/16 07:52:51;;;;;;;9.68;5.50;;;;;;;;;;7385090;19;20019;-70
2021/12/16 07:55:18;;;;;;;9.38;5.95;;;;;;;;;;7385858;19;20493;-70
2021/12/16 07:57:43;;;;;;;8.85;5.82;;;;;;;;;;7386192;19;20027;-70
2021/12/16 08:00:13;;;;;;;11.88;5.80;;;;;;;;;;7385680;19;20002;-70
2021/12/16 08:02:39;;;;;;;7.57;5.28;;;;;;;;;;7384682;19;20097;-70
2021/12/16 08:05:07;;;;;;;7.68;4.57;;;;;;;;;;7386056;19;19995;-70
2021/12/16 08:07:33;;;;;;;8.57;5.38;;;;;;;;;;7384681;19;20461;-70
2021/12/16 08:09:59;;;;;;;7.47;5.07;;;;;;;;;;7384343;19;20010;-70
2021/12/16 08:12:24;;;;;;;10.60;5.53;;;;;;;;;;7390364;19;20329;-71
2021/12/16 08:14:49;;;;;;;7.15;4.50;;;;;;;;;;7393454;19;20003;-70
2021/12/16 08:17:15;;;;;;;8.25;5.07;;;;;;;;;;7393240;19;19991;-70
2021/12/16 08:19:42;;;;;;;7.38;5.13;;;;;;;;;;7392271;19;20023;-70
2021/12/16 08:22:08;;;;;;;8.13;5.45;;;;;;;;;;7391295;19;20310;-69
2021/12/16 08:24:34;;;;;;;9.88;4.75;;;;;;;;;;7392176;19;20024;-70
2021/12/16 08:27:00;;;;;;;8.23;4.55;;;;;;;;;;7390774;19;20078;-70
2021/12/16 08:29:27;;;;;;;6.93;4.25;;;;;;;;;;7391501;19;19994;-70
2021/12/16 08:31:55;;;;;;;7.40;4.60;;;;;;;;;;7392872;19;20062;-70
2021/12/16 08:34:21;;;;;;;9.77;5.78;;;;;;;;;;7396126;19;20019;-70
2021/12/16 08:36:47;;;;;;;11.30;5.65;;;;;;;;;;7392509;19;20003;-70
2021/12/16 08:39:13;;;;;;;10.23;6.10;;;;;;;;;;7390398;19;20011;-71
2021/12/16 08:41:42;;;;;;;8.32;4.07;;;;;;;;;;7391455;19;20134;-70
2021/12/16 08:44:09;;;;;;;7.43;4.90;;;;;;;;;;7392199;19;20452;-70
2021/12/16 08:46:38;;;;;;;7.45;4.35;;;;;;;;;;7391801;19;20457;-70
2021/12/16 08:49:05;;;;;;;7.63;4.68;;;;;;;;;;7391190;19;20016;-70
2021/12/16 08:51:36;;;;;;;8.93;5.00;;;;;;;;;;7390959;19;20019;-70
2021/12/16 08:54:01;;;;;;;7.07;4.38;;;;;;;;;;7390882;19;20002;-71
2021/12/16 08:56:28;;;;;;;8.63;5.38;;;;;;;;;;7391794;19;20110;-70
2021/12/16 08:58:54;;;;;;;7.53;4.85;;;;;;;;;;7390743;19;20006;-70
2021/12/16 09:01:23;;;;;;;10.15;5.35;;;;;;;;;;7390795;19;20489;-70
2021/12/16 09:03:50;;;;;;;8.20;5.07;;;;;;;;;;7391528;19;19998;-70
2021/12/16 09:06:19;;;;;;;7.10;4.78;;;;;;;;;;7390894;19;20031;-72
2021/12/16 09:08:45;;;;;;;6.95;4.90;;;;;;;;;;7389959;19;19998;-70
2021/12/16 09:11:18;;;;;;;9.40;5.43;;;;;;;;;;7391176;19;20011;-70
2021/12/16 09:13:44;;;;;;;9.80;5.10;;;;;;;;;;7390996;19;19999;-71
2021/12/16 09:16:14;;;;;;;8.55;5.30;;;;;;;;;;7391088;19;20013;-71
2021/12/16 09:18:41;;;;;;;10.77;4.90;;;;;;;;;;7389981;19;20001;-70
2021/12/16 09:21:11;;;;;;;9.57;5.10;;;;;;;;;;7390217;19;20010;-70
2021/12/16 09:23:38;;;;;;;7.75;4.90;;;;;;;;;;7391730;19;20066;-70
2021/12/16 09:26:04;;;;;;;7.85;4.68;;;;;;;;;;7390347;19;20005;-70
2021/12/16 09:28:29;;;;;;;7.05;4.20;;;;;;;;;;7389691;19;20349;-70
2021/12/16 09:30:55;;;;;;;6.05;4.45;;;;;;;;;;7390089;19;20006;-70
2021/12/16 09:33:22;;;;;;;7.85;4.70;;;;;;;;;;7392988;19;20378;-71
2021/12/16 09:35:52;;;;;;;6.43;4.43;;;;;;;;;;7389980;19;20003;-71
2021/12/16 09:38:19;;;;;;;6.90;4.63;;;;;;;;;;7388767;19;20031;-71
2021/12/16 09:40:50;;;;;;;8.05;4.28;;;;;;;;;;7390205;19;20381;-71
2021/12/16 09:43:18;;;;;;;7.63;5.05;;;;;;;;;;7390001;19;20529;-71
2021/12/16 09:45:44;;;;;;;7.65;4.68;;;;;;;;;;7390210;19;20002;-70
2021/12/16 09:48:10;;;;;;;7.45;4.57;;;;;;;;;;7387791;19;19991;-71
2021/12/16 09:50:36;;;;;;;6.53;4.57;;;;;;;;;;7389626;19;20508;-71
2021/12/16 09:53:02;;;;;;;7.13;4.28;;;;;;;;;;7387935;19;20013;-71
2021/12/16 09:55:28;;;;;;;8.38;4.60;;;;;;;;;;7389967;19;20031;-71
2021/12/16 09:57:54;;;;;;;6.07;4.00;;;;;;;;;;7389759;19;19999;-71
2021/12/16 10:00:24;;;;;;;7.32;4.05;;;;;;;;;;7388882;19;20029;-71
2021/12/16 10:02:51;;;;;;;9.07;5.00;;;;;;;;;;7387763;19;20005;-70
2021/12/16 10:05:17;;;;;;;7.47;4.72;;;;;;;;;;7389857;19;20023;-70
2021/12/16 10:07:42;;;;;;;8.43;4.93;;;;;;;;;;7388086;19;19999;-70
2021/12/16 10:10:23;;;;;;;7.47;4.60;;;;;;;;;;7387709;19;20020;-70
2021/12/16 10:12:51;;;;;;;8.48;4.97;;;;;;;;;;7391019;19;20006;-70
2021/12/16 10:18:11;;;;;;;6.40;4.07;;;;;;;;;;7389322;19;20102;-70
2021/12/16 10:20:47;;;;;;;7.72;4.57;;;;;;;;;;7388788;19;20491;-70
2021/12/16 10:23:17;;;;;;;6.18;4.07;;;;;;;;;;7386443;19;19994;-70
2021/12/16 10:25:45;;;;;;;6.45;4.10;;;;;;;;;;7388687;19;19997;-70
2021/12/16 10:28:16;;;;;;;6.30;4.07;;;;;;;;;;7386800;19;19995;-70
2021/12/16 10:30:51;;;;;;;7.85;4.32;;;;;;;;;;7388881;19;20019;-70
2021/12/16 10:33:22;;;;;;;5.53;3.20;;;;;;;;;;7387302;19;20299;-70
2021/12/16 10:35:48;;;;;;;4.90;3.08;;;;;;;;;;7388324;19;19998;-70
2021/12/16 10:38:17;;;;;;;4.65;2.95;;;;;;;;;;7386164;19;19998;-71
2021/12/16 10:40:48;;;;;;;5.97;3.53;;;;;;;;;;7388294;19;20092;-70
2021/12/16 10:43:16;;;;;;;5.25;3.42;;;;;;;;;;7386457;19;20003;-70
2021/12/16 10:45:46;;;;;;;5.95;3.20;;;;;;;;;;7388306;19;19995;-69
2021/12/16 10:48:17;;;;;;;6.40;2.80;;;;;;;;;;7385419;19;20001;-69
2021/12/16 10:51:07;;;;;;;5.78;3.78;;;;;;;;;;7387518;19;19994;-70
2021/12/16 10:53:41;;;;;;;4.75;3.40;;;;;;;;;;7386815;19;19994;-70
2021/12/16 10:56:07;;;;;;;6.63;3.23;;;;;;;;;;7388120;19;19995;-70
2021/12/16 10:58:51;;;;;;;6.50;3.67;;;;;;;;;;7386602;19;20020;-71
2021/12/16 11:01:31;;;;;;;4.20;3.20;;;;;;;;;;7388255;19;20003;-71
2021/12/16 11:03:58;;;;;;;4.65;3.33;;;;;;;;;;7390329;19;19994;-71
2021/12/16 11:06:45;;;;;;;4.32;3.00;;;;;;;;;;7387960;19;20023;-70
2021/12/16 11:09:41;;;;;;;5.43;3.70;;;;;;;;;;7385988;19;19994;-71
2021/12/16 11:12:11;;;;;;;4.43;3.28;;;;;;;;;;7387189;19;20015;-70
2021/12/16 11:14:40;;;;;;;21.80;9.93;;;;;;;;;;7387279;19;20479;-71
2021/12/16 11:17:08;;;;;;;10.93;5.22;;;;;;;;;;7387214;19;20303;-70
2021/12/16 11:19:42;;;;;;;10.23;5.55;;;;;;;;;;7385737;19;20437;-71
2021/12/16 11:22:10;;;;;;;7.30;4.40;;;;;;;;;;7386511;19;20497;-70
2021/12/16 11:24:36;;;;;;;7.40;4.00;;;;;;;;;;7386173;19;20262;-70
2021/12/16 11:27:29;;;;;;;5.63;3.38;;;;;;;;;;7386721;19;19995;-71
2021/12/16 11:29:57;;;;;;;6.57;3.28;;;;;;;;;;7385584;19;20031;-72
2021/12/16 11:32:44;;;;;;;7.03;2.88;;;;;;;;;;7385611;19;20005;-71
2021/12/16 11:35:32;;;;;;;5.97;3.63;;;;;;;;;;7386915;19;20001;-71
2021/12/16 11:38:06;;;;;;;4.88;3.65;;;;;;;;;;7384864;19;20333;-72
2021/12/16 11:40:59;;;;;;;4.35;3.13;;;;;;;;;;7387220;19;19990;-71
2021/12/16 11:43:31;;;;;;;5.18;3.70;;;;;;;;;;7386723;19;20424;-71
2021/12/16 11:45:57;;;;;;;6.68;3.38;;;;;;;;;;7389169;19;20341;-70
2021/12/16 11:48:30;;;;;;;4.85;3.72;;;;;;;;;;7390245;19;19990;-70
2021/12/16 11:51:05;;;;;;;5.22;3.00;;;;;;;;;;7393415;19;19991;-71
2021/12/16 11:53:54;;;;;;;5.20;3.00;;;;;;;;;;7397312;19;20022;-70
2021/12/16 11:56:33;;;;;;;6.00;3.50;;;;;;;;;;7393744;19;19995;-71
2021/12/16 11:58:59;;;;;;;6.05;4.30;;;;;;;;;;7392513;19;20027;-71
2021/12/16 12:01:25;;;;;;;7.05;4.22;;;;;;;;;;7392651;19;20460;-71
2021/12/16 12:03:51;;;;;;;6.75;4.15;;;;;;;;;;7393506;19;19999;-70
2021/12/16 12:06:24;;;;;;;6.65;4.15;;;;;;;;;;7393640;19;19999;-71
2021/12/16 12:08:52;;;;;;;4.45;3.20;;;;;;;;;;7392478;19;20424;-71
2021/12/16 12:11:23;;;;;;;6.88;4.03;;;;;;;;;;7393307;19;20010;-70
2021/12/16 12:14:08;;;;;;;5.68;4.00;;;;;;;;;;7393007;19;19998;-71
2021/12/16 12:16:37;;;;;;;5.03;3.35;;;;;;;;;;7393387;19;20163;-70
2021/12/16 12:19:23;;;;;;;4.78;3.30;;;;;;;;;;7392134;19;19999;-70
2021/12/16 12:21:55;;;;;;;;;;;;;;;;;;7392417;19;20010;-71
2021/12/16 12:24:31;;;;;;;5.82;3.83;;;;;;;;;;7391811;19;19928;-72
2021/12/16 12:27:11;;;;;;;5.25;3.38;;;;;;;;;;7392143;19;20001;-71
2021/12/16 12:29:42;;;;;;;3.60;2.78;;;;;;;;;;7391601;19;19995;-71
2021/12/16 12:32:13;;;;;;;4.55;2.95;;;;;;;;;;7391016;19;20027;-71
2021/12/16 12:34:42;;;;;;;5.72;3.45;;;;;;;;;;7392281;19;19994;-71
2021/12/16 12:37:11;;;;;;;5.15;3.50;;;;;;;;;;7393063;19;20035;-71
2021/12/16 12:39:42;;;;;;;5.30;3.20;;;;;;;;;;7390827;19;19990;-70
2021/12/16 12:42:09;;;;;;;4.53;3.13;;;;;;;;;;7392524;19;20009;-71
2021/12/16 12:44:34;;;;;;;5.40;3.65;;;;;;;;;;7396206;19;19998;-71
2021/12/16 12:47:05;;;;;;;6.03;3.45;;;;;;;;;;7391124;19;20020;-71
2021/12/16 12:49:32;;;;;;;3.78;2.88;;;;;;;;;;7390853;19;20087;-72
2021/12/16 12:52:16;;;;;;;5.18;3.30;;;;;;;;;;7390610;19;20010;-71
2021/12/16 12:54:46;;;;;;;5.15;3.15;;;;;;;;;;7391315;19;20464;-70
2021/12/16 12:57:25;;;;;;;5.63;3.30;;;;;;;;;;7391674;19;19998;-71
2021/12/16 12:59:52;;;;;;;5.85;3.45;;;;;;;;;;7390964;19;20340;-71
2021/12/16 13:02:28;;;;;;;5.43;3.65;;;;;;;;;;7389804;19;20009;-72
2021/12/16 13:04:58;;;;;;;5.28;3.38;;;;;;;;;;7391906;19;20002;-70
2021/12/16 13:07:45;;;;;;;5.72;3.95;;;;;;;;;;7390243;19;20025;-71
2021/12/16 13:10:16;;;;;;;5.32;3.42;;;;;;;;;;7389569;19;19991;-71
2021/12/16 13:12:54;;;;;;;5.85;3.53;;;;;;;;;;7389665;19;20002;-72
2021/12/16 13:15:26;;;;;;;7.15;4.53;;;;;;;;;;7391327;19;20479;-71
2021/12/16 13:26:46;;;;;;;5.47;3.80;;;;;;;;;;7391006;19;20089;-71
2021/12/16 13:29:54;;;;;;;5.55;3.85;;;;;;;;;;7389814;19;20035;-70
2021/12/16 13:32:19;;;;;;;4.47;3.35;;;;;;;;;;7392160;19;19998;-71
2021/12/16 13:35:21;;;;;;;4.97;3.50;;;;;;;;;;7394351;19;19991;-72
2021/12/16 13:37:56;;;;;;;4.82;3.30;;;;;;;;;;7390318;19;19991;-71
2021/12/16 13:40:27;;;;;;;4.65;3.22;;;;;;;;;;7389167;19;19995;-70
2021/12/16 13:43:12;;;;;;;5.20;3.60;;;;;;;;;;7388616;19;20344;-71
2021/12/16 13:45:52;;;;;;;4.10;3.17;;;;;;;;;;7390252;19;20002;-70
2021/12/16 13:49:03;;;;;;;5.13;3.33;;;;;;;;;;7387629;19;19995;-71
2021/12/16 14:03:00;;;;;;;5.95;4.05;;;;;;;;;;7388716;19;20022;-72
2021/12/16 14:05:39;;;;;;;5.47;3.47;;;;;;;;;;7389826;19;19990;-71
2021/12/16 14:08:08;;;;;;;7.28;4.45;;;;;;;;;;7385462;19;19991;-73
2021/12/16 14:10:44;;;;;;;5.70;4.18;;;;;;;;;;7388823;19;20010;-71
2021/12/16 14:16:23;;;;;;;4.35;3.17;;;;;;;;;;7389209;19;20046;-71
2021/12/16 14:24:58;;;;;;;5.65;3.92;;;;;;;;;;7392799;19;20002;-71
2021/12/16 14:35:52;;;;;;;5.53;3.47;;;;;;;;;;7388565;19;19994;-72
2021/12/16 14:38:39;;;;;;;5.40;3.80;;;;;;;;;;7386096;19;20003;-70
2021/12/16 14:41:13;;;;;;;5.68;3.95;;;;;;;;;;7388111;19;20063;-70
2021/12/16 14:43:56;;;;;;;5.57;3.72;;;;;;;;;;7387923;19;20054;-71
2021/12/16 14:46:27;;;;;;;6.65;4.60;;;;;;;;;;7388313;19;20062;-71
2021/12/16 14:48:53;;;;;;;6.20;4.55;;;;;;;;;;7387032;19;20386;-71
2021/12/16 14:51:19;;;;;;;6.60;4.68;;;;;;;;;;7387789;19;20460;-71
2021/12/16 14:53:54;;;;;;;11.70;5.35;;;;;;;;;;7387913;19;20021;-72
2021/12/16 14:56:26;;;;;;;10.15;4.57;;;;;;;;;;7388045;19;20472;-72
2021/12/16 14:58:56;;;;;;;7.45;5.10;;;;;;;;;;7387129;19;20311;-72
2021/12/16 15:01:25;;;;;;;7.95;5.28;;;;;;;;;;7387662;19;19999;-72
2021/12/16 15:03:52;;;;;;;6.72;4.93;;;;;;;;;;7387727;19;20489;-72
2021/12/16 15:06:25;;;;;;;8.73;5.85;;;;;;;;;;7387267;19;20015;-72
2021/12/16 15:09:16;;;;;;;9.68;6.05;;;;;;;;;;7385804;19;20106;-72
2021/12/16 15:11:51;;;;;;;9.63;6.07;;;;;;;;;;7391348;19;20014;-71
2021/12/16 15:43:55;;;;;;;10.32;6.75;;;;;;;;;;7395152;19;20458;-72
2021/12/16 15:46:20;;;;;;;10.20;6.70;;;;;;;;;;7395077;19;19998;-71
2021/12/16 15:48:49;;;;;;;10.98;6.55;;;;;;;;;;7393155;19;20402;-71
2021/12/16 15:51:15;;;;;;;12.40;7.32;;;;;;;;;;7393646;19;20354;-71
2021/12/16 15:53:47;;;;;;;11.00;7.13;;;;;;;;;;7393501;19;20470;-71
2021/12/16 15:56:31;;;;;;;11.38;7.03;;;;;;;;;;7394444;19;20058;-71
2021/12/16 15:59:05;;;;;;;11.45;6.65;;;;;;;;;;7392838;19;19995;-72
2021/12/16 16:01:37;;;;;;;10.98;7.10;;;;;;;;;;7396733;19;20329;-71
2021/12/16 16:04:15;;;;;;;11.82;7.50;;;;;;;;;;7396981;19;19998;-71
2021/12/16 16:06:43;;;;;;;11.80;6.55;;;;;;;;;;7393675;19;19998;-72
2021/12/16 16:09:10;;;;;;;12.35;7.47;;;;;;;;;;7391666;19;20001;-71
2021/12/16 16:11:38;;;;;;;11.40;7.20;;;;;;;;;;7392359;19;19999;-72
2021/12/16 16:14:06;;;;;;;16.00;8.02;;;;;;;;;;7393298;19;20374;-71
2021/12/16 16:16:44;;;;;;;11.65;7.53;;;;;;;;;;7393977;19;19995;-71
2021/12/16 16:19:12;;;;;;;11.50;6.75;;;;;;;;;;7392012;19;20003;-71
2021/12/16 16:21:42;;;;;;;12.90;7.68;;;;;;;;;;7392253;19;19991;-71
2021/12/16 16:24:21;;;;;;;14.25;6.32;;;;;;;;;;7392276;19;19997;-72
2021/12/16 16:26:48;;;;;;;11.13;6.60;;;;;;;;;;7392696;19;19998;-71
2021/12/16 16:29:18;;;;;;;12.32;7.05;;;;;;;;;;7392079;19;20359;-71
2021/12/16 16:31:44;;;;;;;12.23;7.28;;;;;;;;;;7390399;19;19999;-72
2021/12/16 16:34:16;;;;;;;10.68;7.18;;;;;;;;;;7392463;19;20009;-72
2021/12/16 16:36:44;;;;;;;13.60;7.70;;;;;;;;;;7392582;19;19994;-71
2021/12/16 16:39:14;;;;;;;17.45;11.07;;;;;;;;;;7390667;19;20002;-71
2021/12/16 16:41:46;;;;;;;14.25;8.60;;;;;;;;;;7391466;19;20102;-72
2021/12/16 16:44:14;;;;;;;13.48;8.45;;;;;;;;;;7392816;19;20001;-71
2021/12/16 16:47:01;;;;;;;14.65;8.82;;;;;;;;;;7391629;19;20005;-71
2021/12/16 16:49:30;;;;;;;15.75;7.90;;;;;;;;;;7391345;19;20066;-72
2021/12/16 16:51:59;;;;;;;15.23;8.30;;;;;;;;;;7394160;19;20074;-72
2021/12/16 16:54:27;;;;;;;12.05;7.45;;;;;;;;;;7395514;19;20026;-72
2021/12/16 16:57:14;;;;;;;12.85;6.13;;;;;;;;;;7391869;19;19991;-71
2021/12/16 16:59:49;;;;;;;18.83;10.05;;;;;;;;;;7391346;19;19994;-71
2021/12/16 17:02:25;;;;;;;11.25;7.07;;;;;;;;;;7390424;19;19995;-71
2021/12/16 17:05:03;;;;;;;11.07;7.45;;;;;;;;;;7392061;19;19997;-71
2021/12/16 17:07:43;;;;;;;13.25;7.68;;;;;;;;;;7390203;19;19999;-72
2021/12/16 17:10:23;;;;;;;11.48;6.85;;;;;;;;;;7389999;19;19998;-71
2021/12/16 17:12:49;;;;;;;11.07;6.07;;;;;;;;;;7389577;19;19990;-71
2021/12/16 17:15:33;;;;;;;11.80;7.18;;;;;;;;;;7391204;19;20020;-71
2021/12/16 17:17:58;;;;;;;13.57;7.03;;;;;;;;;;7391280;19;20058;-71
2021/12/16 17:20:24;;;;;;;10.93;6.10;;;;;;;;;;7390815;19;20007;-75
2021/12/16 17:22:52;;;;;;;14.18;8.10;;;;;;;;;;7389362;19;19999;-71
2021/12/16 17:25:19;;;;;;;16.80;8.35;;;;;;;;;;7390207;19;20414;-71
2021/12/16 17:27:53;;;;;;;23.58;10.23;;;;;;;;;;7389398;19;19995;-72
2021/12/16 17:30:41;;;;;;;16.17;10.13;;;;;;;;;;7390528;19;20044;-72
2021/12/16 17:33:10;;;;;;;14.90;8.55;;;;;;;;;;7388674;19;20618;-72
2021/12/16 17:35:47;;;;;;;13.25;7.53;;;;;;;;;;7390852;19;19998;-71
2021/12/16 17:38:20;;;;;;;14.25;7.90;;;;;;;;;;7389548;19;19994;-72
2021/12/16 17:40:55;;;;;;;13.65;7.88;;;;;;;;;;7391264;19;19994;-71
2021/12/16 17:43:32;;;;;;;12.63;7.65;;;;;;;;;;7391002;19;20012;-72
2021/12/16 17:46:05;;;;;;;17.80;8.38;;;;;;;;;;7390935;19;20359;-71
2021/12/16 17:48:36;;;;;;;12.95;7.38;;;;;;;;;;7387360;19;20130;-71
2021/12/16 17:51:06;;;;;;;11.63;6.80;;;;;;;;;;7390190;19;19991;-71
2021/12/16 17:53:34;;;;;;;15.45;7.43;;;;;;;;;;7389312;19;20090;-71
2021/12/16 17:56:05;;;;;;;15.52;7.47;;;;;;;;;;7390253;19;20002;-71
2021/12/16 17:58:34;;;;;;;11.82;6.88;;;;;;;;;;7389149;19;20331;-72
2021/12/16 18:01:10;;;;;;;14.52;7.28;;;;;;;;;;7389639;19;20008;-72
2021/12/16 18:03:46;;;;;;;12.05;6.82;;;;;;;;;;7389482;19;19991;-70
2021/12/16 18:06:17;;;;;;;9.68;5.82;;;;;;;;;;7389692;19;19995;-71
2021/12/16 18:08:50;;;;;;;11.25;6.38;;;;;;;;;;7386523;19;20026;-71
2021/12/16 18:11:23;;;;;;;12.57;7.00;;;;;;;;;;7389122;19;20460;-72
2021/12/16 18:13:57;;;;;;;9.38;5.82;;;;;;;;;;7389036;19;20002;-72
2021/12/16 18:16:39;;;;;;;15.88;7.25;;;;;;;;;;7389375;19;20018;-71
2021/12/16 18:19:26;;;;;;;12.23;6.60;;;;;;;;;;7388663;19;20057;-71
2021/12/16 18:21:55;;;;;;;12.27;7.57;;;;;;;;;;7388330;19;20009;-72
2021/12/16 18:24:32;;;;;;;13.98;8.35;;;;;;;;;;7388181;19;20079;-72
2021/12/16 18:26:57;;;;;;;15.95;8.80;;;;;;;;;;7388561;19;20666;-71
2021/12/16 18:29:22;;;;;;;17.58;9.07;;;;;;;;;;7387722;19;19999;-71
2021/12/16 18:31:48;;;;;;;15.27;8.02;;;;;;;;;;7391297;19;19995;-71
2021/12/16 18:34:13;;;;;;;16.73;8.75;;;;;;;;;;7392081;19;20356;-72
2021/12/16 18:36:40;;;;;;;16.88;9.85;;;;;;;;;;7389083;19;20001;-71
2021/12/16 18:39:10;;;;;;;17.73;9.15;;;;;;;;;;7386812;19;19998;-71
2021/12/16 18:41:41;;;;;;;16.45;10.23;;;;;;;;;;7387925;19;20323;-72
2021/12/16 18:44:09;;;;;;;23.67;13.05;;;;;;;;;;7388007;19;20014;-71